sensor_id;sensor_type;location;lat;lon;timestamp;P1;durP1;ratioP1;P2;durP2;ratioP2
39782;SDS011;25462;51.164;17.100;2023-05-10T00:00:28;11.50;;;4.20;;
39782;SDS011;25462;51.164;17.100;2023-05-10T00:05:45;7.10;;;4.20;;
39782;SDS011;25462;51.164;17.100;2023-05-10T00:10:51;7.90;;;4.00;;
39782;SDS011;25462;51.164;17.100;2023-05-10T00:15:56;8.40;;;4.50;;
39782;SDS011;25462;51.164;17.100;2023-05-10T00:21:01;9.60;;;4.70;;
39782;SDS011;25462;51.164;17.100;2023-05-10T00:26:06;8.70;;;4.20;;
39782;SDS011;25462;51.164;17.100;2023-05-10T00:31:13;7.80;;;4.10;;
39782;SDS011;25462;51.164;17.100;2023-05-10T00:36:18;7.50;;;4.00;;
39782;SDS011;25462;51.164;17.100;2023-05-10T00:41:24;7.00;;;4.30;;
39782;SDS011;25462;51.164;17.100;2023-05-10T00:46:30;8.70;;;4.20;;
39782;SDS011;25462;51.164;17.100;2023-05-10T00:51:35;8.50;;;4.50;;
39782;SDS011;25462;51.164;17.100;2023-05-10T00:56:42;9.80;;;4.30;;
39782;SDS011;25462;51.164;17.100;2023-05-10T01:01:53;8.10;;;4.60;;
39782;SDS011;25462;51.164;17.100;2023-05-10T01:06:58;10.50;;;4.80;;
39782;SDS011;25462;51.164;17.100;2023-05-10T01:12:04;9.40;;;4.80;;
39782;SDS011;25462;51.164;17.100;2023-05-10T01:17:10;7.80;;;4.30;;
39782;SDS011;25462;51.164;17.100;2023-05-10T01:38:49;9.30;;;4.80;;
39782;SDS011;25462;51.164;17.100;2023-05-10T01:49:30;10.80;;;4.80;;
39782;SDS011;25462;51.164;17.100;2023-05-10T01:54:37;8.50;;;4.70;;
39782;SDS011;25462;51.164;17.100;2023-05-10T01:59:44;13.10;;;5.30;;
39782;SDS011;25462;51.164;17.100;2023-05-10T02:04:50;9.10;;;4.80;;
39782;SDS011;25462;51.164;17.100;2023-05-10T02:09:55;10.10;;;5.10;;
39782;SDS011;25462;51.164;17.100;2023-05-10T02:15:00;11.00;;;5.00;;
39782;SDS011;25462;51.164;17.100;2023-05-10T02:20:06;10.40;;;5.10;;
39782;SDS011;25462;51.164;17.100;2023-05-10T02:25:13;11.20;;;5.20;;
39782;SDS011;25462;51.164;17.100;2023-05-10T02:30:19;9.70;;;5.00;;
39782;SDS011;25462;51.164;17.100;2023-05-10T02:35:26;9.40;;;5.90;;
39782;SDS011;25462;51.164;17.100;2023-05-10T02:40:37;11.00;;;5.80;;
39782;SDS011;25462;51.164;17.100;2023-05-10T02:45:41;8.00;;;5.20;;
39782;SDS011;25462;51.164;17.100;2023-05-10T02:50:47;9.50;;;5.30;;
39782;SDS011;25462;51.164;17.100;2023-05-10T02:55:56;10.00;;;5.00;;
39782;SDS011;25462;51.164;17.100;2023-05-10T03:01:03;10.60;;;5.50;;
39782;SDS011;25462;51.164;17.100;2023-05-10T03:06:11;9.30;;;5.40;;
39782;SDS011;25462;51.164;17.100;2023-05-10T03:16:47;13.10;;;5.70;;
39782;SDS011;25462;51.164;17.100;2023-05-10T03:22:03;9.70;;;5.40;;
39782;SDS011;25462;51.164;17.100;2023-05-10T03:27:13;11.00;;;5.30;;
39782;SDS011;25462;51.164;17.100;2023-05-10T03:32:19;10.50;;;4.80;;
39782;SDS011;25462;51.164;17.100;2023-05-10T03:37:24;9.30;;;5.50;;
39782;SDS011;25462;51.164;17.100;2023-05-10T03:42:29;13.20;;;4.90;;
39782;SDS011;25462;51.164;17.100;2023-05-10T03:47:35;10.80;;;5.30;;
39782;SDS011;25462;51.164;17.100;2023-05-10T03:52:40;11.30;;;4.90;;
39782;SDS011;25462;51.164;17.100;2023-05-10T03:57:45;7.90;;;4.20;;
39782;SDS011;25462;51.164;17.100;2023-05-10T04:02:50;10.30;;;4.80;;
39782;SDS011;25462;51.164;17.100;2023-05-10T04:07:57;8.70;;;4.40;;
39782;SDS011;25462;51.164;17.100;2023-05-10T04:13:01;6.60;;;4.30;;
39782;SDS011;25462;51.164;17.100;2023-05-10T04:18:05;10.30;;;4.60;;
39782;SDS011;25462;51.164;17.100;2023-05-10T04:23:12;8.10;;;4.30;;
39782;SDS011;25462;51.164;17.100;2023-05-10T04:28:18;10.00;;;4.90;;
39782;SDS011;25462;51.164;17.100;2023-05-10T04:33:21;9.20;;;3.90;;
39782;SDS011;25462;51.164;17.100;2023-05-10T04:38:26;8.90;;;4.40;;
39782;SDS011;25462;51.164;17.100;2023-05-10T04:43:30;12.00;;;4.50;;
39782;SDS011;25462;51.164;17.100;2023-05-10T04:48:34;10.40;;;4.80;;
39782;SDS011;25462;51.164;17.100;2023-05-10T04:53:39;9.40;;;4.40;;
39782;SDS011;25462;51.164;17.100;2023-05-10T04:58:46;11.60;;;4.40;;
39782;SDS011;25462;51.164;17.100;2023-05-10T05:03:50;7.60;;;4.50;;
39782;SDS011;25462;51.164;17.100;2023-05-10T05:08:56;6.40;;;4.10;;
39782;SDS011;25462;51.164;17.100;2023-05-10T05:14:00;8.10;;;4.50;;
39782;SDS011;25462;51.164;17.100;2023-05-10T05:19:04;8.50;;;4.70;;
39782;SDS011;25462;51.164;17.100;2023-05-10T05:24:10;9.50;;;4.60;;
39782;SDS011;25462;51.164;17.100;2023-05-10T05:29:16;11.30;;;4.70;;
39782;SDS011;25462;51.164;17.100;2023-05-10T05:34:21;8.80;;;4.70;;
39782;SDS011;25462;51.164;17.100;2023-05-10T05:39:25;9.30;;;4.10;;
39782;SDS011;25462;51.164;17.100;2023-05-10T05:44:29;8.20;;;4.20;;
39782;SDS011;25462;51.164;17.100;2023-05-10T05:49:33;9.70;;;4.60;;
39782;SDS011;25462;51.164;17.100;2023-05-10T05:54:38;9.30;;;4.20;;
39782;SDS011;25462;51.164;17.100;2023-05-10T05:59:42;12.90;;;4.40;;
39782;SDS011;25462;51.164;17.100;2023-05-10T06:04:47;6.60;;;3.80;;
39782;SDS011;25462;51.164;17.100;2023-05-10T06:09:51;7.90;;;4.60;;
39782;SDS011;25462;51.164;17.100;2023-05-10T06:14:55;10.20;;;3.80;;
39782;SDS011;25462;51.164;17.100;2023-05-10T06:20:00;9.90;;;4.20;;
39782;SDS011;25462;51.164;17.100;2023-05-10T06:25:04;11.10;;;4.40;;
39782;SDS011;25462;51.164;17.100;2023-05-10T06:30:08;5.30;;;3.40;;
39782;SDS011;25462;51.164;17.100;2023-05-10T06:35:15;7.80;;;3.40;;
39782;SDS011;25462;51.164;17.100;2023-05-10T06:40:20;7.40;;;3.40;;
39782;SDS011;25462;51.164;17.100;2023-05-10T06:45:24;6.60;;;3.60;;
39782;SDS011;25462;51.164;17.100;2023-05-10T06:50:28;7.20;;;3.50;;
39782;SDS011;25462;51.164;17.100;2023-05-10T06:55:32;4.90;;;3.30;;
39782;SDS011;25462;51.164;17.100;2023-05-10T07:00:35;6.30;;;3.30;;
39782;SDS011;25462;51.164;17.100;2023-05-10T07:05:43;6.10;;;3.30;;
39782;SDS011;25462;51.164;17.100;2023-05-10T07:10:50;7.10;;;3.30;;
39782;SDS011;25462;51.164;17.100;2023-05-10T07:15:54;8.00;;;3.30;;
39782;SDS011;25462;51.164;17.100;2023-05-10T07:20:58;6.40;;;3.00;;
39782;SDS011;25462;51.164;17.100;2023-05-10T07:26:02;4.90;;;2.80;;
39782;SDS011;25462;51.164;17.100;2023-05-10T07:31:07;7.00;;;3.60;;
39782;SDS011;25462;51.164;17.100;2023-05-10T07:36:11;5.90;;;3.20;;
39782;SDS011;25462;51.164;17.100;2023-05-10T07:41:15;6.80;;;3.20;;
39782;SDS011;25462;51.164;17.100;2023-05-10T07:46:19;5.60;;;3.10;;
39782;SDS011;25462;51.164;17.100;2023-05-10T07:51:23;6.50;;;3.40;;
39782;SDS011;25462;51.164;17.100;2023-05-10T07:56:29;4.70;;;3.20;;
39782;SDS011;25462;51.164;17.100;2023-05-10T08:01:35;5.90;;;3.10;;
39782;SDS011;25462;51.164;17.100;2023-05-10T08:06:39;5.20;;;2.80;;
39782;SDS011;25462;51.164;17.100;2023-05-10T08:11:43;10.00;;;3.60;;
39782;SDS011;25462;51.164;17.100;2023-05-10T08:16:47;6.90;;;3.20;;
39782;SDS011;25462;51.164;17.100;2023-05-10T08:21:50;4.90;;;3.10;;
39782;SDS011;25462;51.164;17.100;2023-05-10T08:26:54;6.10;;;3.30;;
39782;SDS011;25462;51.164;17.100;2023-05-10T08:31:58;7.40;;;3.30;;
39782;SDS011;25462;51.164;17.100;2023-05-10T08:37:02;6.10;;;3.10;;
39782;SDS011;25462;51.164;17.100;2023-05-10T08:42:06;4.90;;;3.00;;
39782;SDS011;25462;51.164;17.100;2023-05-10T08:47:11;4.20;;;2.80;;
39782;SDS011;25462;51.164;17.100;2023-05-10T08:52:17;5.30;;;2.90;;
39782;SDS011;25462;51.164;17.100;2023-05-10T08:57:22;5.30;;;2.80;;
39782;SDS011;25462;51.164;17.100;2023-05-10T09:02:25;4.20;;;2.60;;
39782;SDS011;25462;51.164;17.100;2023-05-10T09:07:30;6.20;;;2.50;;
39782;SDS011;25462;51.164;17.100;2023-05-10T09:12:36;4.10;;;2.40;;
39782;SDS011;25462;51.164;17.100;2023-05-10T09:17:40;5.40;;;2.60;;
39782;SDS011;25462;51.164;17.100;2023-05-10T09:22:45;9.70;;;2.80;;
39782;SDS011;25462;51.164;17.100;2023-05-10T09:27:50;4.30;;;2.60;;
39782;SDS011;25462;51.164;17.100;2023-05-10T09:32:55;5.60;;;2.60;;
39782;SDS011;25462;51.164;17.100;2023-05-10T09:38:04;5.60;;;2.70;;
39782;SDS011;25462;51.164;17.100;2023-05-10T09:43:09;3.80;;;2.30;;
39782;SDS011;25462;51.164;17.100;2023-05-10T09:48:14;5.40;;;2.60;;
39782;SDS011;25462;51.164;17.100;2023-05-10T09:53:18;4.00;;;2.30;;
39782;SDS011;25462;51.164;17.100;2023-05-10T09:58:23;7.60;;;2.80;;
39782;SDS011;25462;51.164;17.100;2023-05-10T10:03:26;5.00;;;2.30;;
39782;SDS011;25462;51.164;17.100;2023-05-10T10:08:32;4.20;;;2.60;;
39782;SDS011;25462;51.164;17.100;2023-05-10T10:13:36;5.80;;;2.60;;
39782;SDS011;25462;51.164;17.100;2023-05-10T10:18:40;7.60;;;3.10;;
39782;SDS011;25462;51.164;17.100;2023-05-10T10:23:49;4.90;;;2.40;;
39782;SDS011;25462;51.164;17.100;2023-05-10T10:28:59;4.80;;;2.80;;
39782;SDS011;25462;51.164;17.100;2023-05-10T10:34:08;4.20;;;2.50;;
39782;SDS011;25462;51.164;17.100;2023-05-10T10:39:14;5.70;;;2.60;;
39782;SDS011;25462;51.164;17.100;2023-05-10T10:49:30;4.30;;;2.50;;
39782;SDS011;25462;51.164;17.100;2023-05-10T10:54:51;5.80;;;2.30;;
39782;SDS011;25462;51.164;17.100;2023-05-10T11:10:51;3.10;;;2.20;;
39782;SDS011;25462;51.164;17.100;2023-05-10T11:16:22;4.60;;;2.50;;
39782;SDS011;25462;51.164;17.100;2023-05-10T11:21:28;4.00;;;2.60;;
39782;SDS011;25462;51.164;17.100;2023-05-10T11:26:35;4.20;;;2.70;;
39782;SDS011;25462;51.164;17.100;2023-05-10T11:31:43;3.30;;;2.10;;
39782;SDS011;25462;51.164;17.100;2023-05-10T11:36:50;3.40;;;2.30;;
39782;SDS011;25462;51.164;17.100;2023-05-10T11:41:57;3.40;;;2.30;;
39782;SDS011;25462;51.164;17.100;2023-05-10T11:47:02;4.10;;;2.20;;
39782;SDS011;25462;51.164;17.100;2023-05-10T11:52:07;6.60;;;2.10;;
39782;SDS011;25462;51.164;17.100;2023-05-10T11:57:12;6.20;;;2.20;;
39782;SDS011;25462;51.164;17.100;2023-05-10T12:02:16;2.80;;;1.70;;
39782;SDS011;25462;51.164;17.100;2023-05-10T12:07:20;4.20;;;1.90;;
39782;SDS011;25462;51.164;17.100;2023-05-10T12:12:24;3.40;;;1.90;;
39782;SDS011;25462;51.164;17.100;2023-05-10T12:17:29;8.60;;;2.20;;
39782;SDS011;25462;51.164;17.100;2023-05-10T12:22:33;4.80;;;2.10;;
39782;SDS011;25462;51.164;17.100;2023-05-10T12:27:38;2.50;;;1.80;;
39782;SDS011;25462;51.164;17.100;2023-05-10T12:32:43;5.30;;;1.90;;
39782;SDS011;25462;51.164;17.100;2023-05-10T12:37:47;3.70;;;2.00;;
39782;SDS011;25462;51.164;17.100;2023-05-10T12:42:51;4.60;;;1.90;;
39782;SDS011;25462;51.164;17.100;2023-05-10T12:47:55;6.50;;;2.10;;
39782;SDS011;25462;51.164;17.100;2023-05-10T12:53:00;5.50;;;1.80;;
39782;SDS011;25462;51.164;17.100;2023-05-10T12:58:04;3.70;;;1.90;;
39782;SDS011;25462;51.164;17.100;2023-05-10T13:03:08;8.50;;;2.10;;
39782;SDS011;25462;51.164;17.100;2023-05-10T13:08:12;4.50;;;1.90;;
39782;SDS011;25462;51.164;17.100;2023-05-10T13:13:16;6.90;;;2.10;;
39782;SDS011;25462;51.164;17.100;2023-05-10T13:18:21;3.40;;;1.60;;
39782;SDS011;25462;51.164;17.100;2023-05-10T13:23:25;8.60;;;2.00;;
39782;SDS011;25462;51.164;17.100;2023-05-10T13:28:29;4.60;;;1.90;;
39782;SDS011;25462;51.164;17.100;2023-05-10T13:33:33;9.20;;;2.00;;
39782;SDS011;25462;51.164;17.100;2023-05-10T13:38:38;3.20;;;1.70;;
39782;SDS011;25462;51.164;17.100;2023-05-10T13:43:42;9.20;;;1.90;;
39782;SDS011;25462;51.164;17.100;2023-05-10T13:48:46;6.80;;;1.60;;
39782;SDS011;25462;51.164;17.100;2023-05-10T13:53:50;5.60;;;1.70;;
39782;SDS011;25462;51.164;17.100;2023-05-10T13:58:56;6.30;;;1.80;;
39782;SDS011;25462;51.164;17.100;2023-05-10T14:04:02;4.40;;;1.60;;
39782;SDS011;25462;51.164;17.100;2023-05-10T14:09:06;3.80;;;1.50;;
39782;SDS011;25462;51.164;17.100;2023-05-10T14:14:12;7.10;;;1.70;;
39782;SDS011;25462;51.164;17.100;2023-05-10T14:19:16;5.40;;;1.50;;
39782;SDS011;25462;51.164;17.100;2023-05-10T14:24:20;4.60;;;1.40;;
39782;SDS011;25462;51.164;17.100;2023-05-10T14:29:24;4.30;;;1.80;;
39782;SDS011;25462;51.164;17.100;2023-05-10T14:34:28;3.80;;;1.40;;
39782;SDS011;25462;51.164;17.100;2023-05-10T14:39:33;3.90;;;1.50;;
39782;SDS011;25462;51.164;17.100;2023-05-10T14:44:37;10.00;;;2.10;;
39782;SDS011;25462;51.164;17.100;2023-05-10T14:49:41;3.00;;;1.90;;
39782;SDS011;25462;51.164;17.100;2023-05-10T14:54:45;4.10;;;1.70;;
39782;SDS011;25462;51.164;17.100;2023-05-10T14:59:48;5.90;;;1.80;;
39782;SDS011;25462;51.164;17.100;2023-05-10T15:04:52;4.10;;;1.60;;
39782;SDS011;25462;51.164;17.100;2023-05-10T15:09:57;3.40;;;1.40;;
39782;SDS011;25462;51.164;17.100;2023-05-10T15:15:00;4.20;;;1.60;;
39782;SDS011;25462;51.164;17.100;2023-05-10T15:20:05;2.90;;;1.50;;
39782;SDS011;25462;51.164;17.100;2023-05-10T15:25:10;3.40;;;1.30;;
39782;SDS011;25462;51.164;17.100;2023-05-10T15:30:14;7.00;;;1.70;;
39782;SDS011;25462;51.164;17.100;2023-05-10T15:35:18;7.40;;;1.60;;
39782;SDS011;25462;51.164;17.100;2023-05-10T15:40:22;5.40;;;1.90;;
39782;SDS011;25462;51.164;17.100;2023-05-10T15:45:28;3.50;;;1.80;;
39782;SDS011;25462;51.164;17.100;2023-05-10T15:50:32;5.00;;;1.70;;
39782;SDS011;25462;51.164;17.100;2023-05-10T15:55:36;4.00;;;1.70;;
39782;SDS011;25462;51.164;17.100;2023-05-10T16:00:40;6.60;;;1.70;;
39782;SDS011;25462;51.164;17.100;2023-05-10T16:05:44;3.70;;;1.50;;
39782;SDS011;25462;51.164;17.100;2023-05-10T16:10:52;9.60;;;2.40;;
39782;SDS011;25462;51.164;17.100;2023-05-10T16:15:57;7.60;;;1.80;;
39782;SDS011;25462;51.164;17.100;2023-05-10T16:21:01;3.60;;;1.50;;
39782;SDS011;25462;51.164;17.100;2023-05-10T16:26:05;9.00;;;1.90;;
39782;SDS011;25462;51.164;17.100;2023-05-10T16:31:10;10.50;;;2.00;;
39782;SDS011;25462;51.164;17.100;2023-05-10T16:36:16;4.70;;;2.00;;
39782;SDS011;25462;51.164;17.100;2023-05-10T16:41:20;5.90;;;2.10;;
39782;SDS011;25462;51.164;17.100;2023-05-10T16:46:23;5.10;;;2.00;;
39782;SDS011;25462;51.164;17.100;2023-05-10T16:51:27;3.80;;;2.30;;
39782;SDS011;25462;51.164;17.100;2023-05-10T16:56:31;11.60;;;2.30;;
39782;SDS011;25462;51.164;17.100;2023-05-10T17:01:35;5.90;;;2.20;;
39782;SDS011;25462;51.164;17.100;2023-05-10T17:06:39;6.60;;;2.20;;
39782;SDS011;25462;51.164;17.100;2023-05-10T17:11:42;5.00;;;2.20;;
39782;SDS011;25462;51.164;17.100;2023-05-10T17:16:46;3.70;;;2.10;;
39782;SDS011;25462;51.164;17.100;2023-05-10T17:21:50;5.00;;;2.20;;
39782;SDS011;25462;51.164;17.100;2023-05-10T17:26:54;4.90;;;2.10;;
39782;SDS011;25462;51.164;17.100;2023-05-10T17:31:59;6.00;;;2.10;;
39782;SDS011;25462;51.164;17.100;2023-05-10T17:37:03;5.50;;;2.10;;
39782;SDS011;25462;51.164;17.100;2023-05-10T17:42:08;4.10;;;1.90;;
39782;SDS011;25462;51.164;17.100;2023-05-10T17:47:12;5.50;;;2.20;;
39782;SDS011;25462;51.164;17.100;2023-05-10T17:52:16;8.30;;;2.10;;
39782;SDS011;25462;51.164;17.100;2023-05-10T17:57:19;5.30;;;3.30;;
39782;SDS011;25462;51.164;17.100;2023-05-10T18:02:23;8.30;;;4.20;;
39782;SDS011;25462;51.164;17.100;2023-05-10T18:07:28;9.10;;;4.70;;
39782;SDS011;25462;51.164;17.100;2023-05-10T18:12:34;9.00;;;4.10;;
39782;SDS011;25462;51.164;17.100;2023-05-10T18:17:38;8.20;;;3.80;;
39782;SDS011;25462;51.164;17.100;2023-05-10T18:22:42;9.50;;;3.70;;
39782;SDS011;25462;51.164;17.100;2023-05-10T18:27:46;8.80;;;3.70;;
39782;SDS011;25462;51.164;17.100;2023-05-10T18:32:50;5.70;;;3.90;;
39782;SDS011;25462;51.164;17.100;2023-05-10T18:37:54;8.40;;;3.90;;
39782;SDS011;25462;51.164;17.100;2023-05-10T18:42:59;6.60;;;3.40;;
39782;SDS011;25462;51.164;17.100;2023-05-10T18:48:03;7.30;;;3.10;;
39782;SDS011;25462;51.164;17.100;2023-05-10T18:53:09;5.90;;;3.30;;
39782;SDS011;25462;51.164;17.100;2023-05-10T18:58:13;11.70;;;3.00;;
39782;SDS011;25462;51.164;17.100;2023-05-10T19:03:18;11.90;;;3.40;;
39782;SDS011;25462;51.164;17.100;2023-05-10T19:08:24;7.90;;;3.30;;
39782;SDS011;25462;51.164;17.100;2023-05-10T19:13:28;6.80;;;3.90;;
39782;SDS011;25462;51.164;17.100;2023-05-10T19:18:33;7.70;;;3.90;;
39782;SDS011;25462;51.164;17.100;2023-05-10T19:23:37;9.60;;;4.40;;
39782;SDS011;25462;51.164;17.100;2023-05-10T19:28:46;11.40;;;5.30;;
39782;SDS011;25462;51.164;17.100;2023-05-10T19:33:51;10.90;;;5.20;;
39782;SDS011;25462;51.164;17.100;2023-05-10T19:39:00;11.00;;;5.60;;
39782;SDS011;25462;51.164;17.100;2023-05-10T19:44:04;10.40;;;5.60;;
39782;SDS011;25462;51.164;17.100;2023-05-10T19:49:08;10.00;;;5.50;;
39782;SDS011;25462;51.164;17.100;2023-05-10T19:54:13;9.60;;;5.10;;
39782;SDS011;25462;51.164;17.100;2023-05-10T19:59:18;10.30;;;5.70;;
39782;SDS011;25462;51.164;17.100;2023-05-10T20:04:23;9.90;;;6.10;;
39782;SDS011;25462;51.164;17.100;2023-05-10T20:09:29;19.50;;;6.30;;
39782;SDS011;25462;51.164;17.100;2023-05-10T20:14:33;9.90;;;5.90;;
39782;SDS011;25462;51.164;17.100;2023-05-10T20:19:37;14.40;;;7.50;;
39782;SDS011;25462;51.164;17.100;2023-05-10T20:24:42;9.90;;;5.80;;
39782;SDS011;25462;51.164;17.100;2023-05-10T20:29:47;11.70;;;6.00;;
39782;SDS011;25462;51.164;17.100;2023-05-10T20:34:51;12.40;;;5.70;;
39782;SDS011;25462;51.164;17.100;2023-05-10T20:39:56;11.40;;;5.70;;
39782;SDS011;25462;51.164;17.100;2023-05-10T20:45:01;12.00;;;5.20;;
39782;SDS011;25462;51.164;17.100;2023-05-10T20:50:05;10.00;;;5.00;;
39782;SDS011;25462;51.164;17.100;2023-05-10T20:55:10;9.50;;;4.90;;
39782;SDS011;25462;51.164;17.100;2023-05-10T21:00:14;8.20;;;5.20;;
39782;SDS011;25462;51.164;17.100;2023-05-10T21:05:18;8.90;;;5.10;;
39782;SDS011;25462;51.164;17.100;2023-05-10T21:10:24;10.50;;;5.30;;
39782;SDS011;25462;51.164;17.100;2023-05-10T21:15:42;11.50;;;5.70;;
39782;SDS011;25462;51.164;17.100;2023-05-10T21:20:46;8.30;;;4.50;;
39782;SDS011;25462;51.164;17.100;2023-05-10T21:25:50;10.60;;;4.70;;
39782;SDS011;25462;51.164;17.100;2023-05-10T21:30:54;8.60;;;4.90;;
39782;SDS011;25462;51.164;17.100;2023-05-10T21:35:58;6.50;;;4.00;;
39782;SDS011;25462;51.164;17.100;2023-05-10T21:41:05;9.00;;;4.70;;
39782;SDS011;25462;51.164;17.100;2023-05-10T21:46:10;9.80;;;5.00;;
39782;SDS011;25462;51.164;17.100;2023-05-10T21:51:16;7.40;;;4.90;;
39782;SDS011;25462;51.164;17.100;2023-05-10T21:56:20;7.10;;;3.70;;
39782;SDS011;25462;51.164;17.100;2023-05-10T22:01:25;10.70;;;4.60;;
39782;SDS011;25462;51.164;17.100;2023-05-10T22:06:30;6.10;;;3.90;;
39782;SDS011;25462;51.164;17.100;2023-05-10T22:11:34;8.30;;;4.10;;
39782;SDS011;25462;51.164;17.100;2023-05-10T22:16:39;7.20;;;3.90;;
39782;SDS011;25462;51.164;17.100;2023-05-10T22:21:43;6.40;;;3.60;;
39782;SDS011;25462;51.164;17.100;2023-05-10T22:26:46;9.40;;;4.70;;
39782;SDS011;25462;51.164;17.100;2023-05-10T22:31:50;11.30;;;3.80;;
39782;SDS011;25462;51.164;17.100;2023-05-10T22:36:54;6.50;;;4.10;;
39782;SDS011;25462;51.164;17.100;2023-05-10T22:41:58;7.70;;;4.10;;
39782;SDS011;25462;51.164;17.100;2023-05-10T22:47:02;8.00;;;4.00;;
39782;SDS011;25462;51.164;17.100;2023-05-10T22:52:09;6.60;;;4.00;;
39782;SDS011;25462;51.164;17.100;2023-05-10T22:57:13;12.40;;;3.80;;
39782;SDS011;25462;51.164;17.100;2023-05-10T23:02:18;6.70;;;4.00;;
39782;SDS011;25462;51.164;17.100;2023-05-10T23:07:23;5.90;;;3.70;;
39782;SDS011;25462;51.164;17.100;2023-05-10T23:12:26;6.50;;;3.90;;
39782;SDS011;25462;51.164;17.100;2023-05-10T23:17:30;5.90;;;3.90;;
39782;SDS011;25462;51.164;17.100;2023-05-10T23:22:35;6.80;;;4.10;;
39782;SDS011;25462;51.164;17.100;2023-05-10T23:27:40;9.70;;;4.50;;
39782;SDS011;25462;51.164;17.100;2023-05-10T23:32:43;5.50;;;3.70;;
39782;SDS011;25462;51.164;17.100;2023-05-10T23:37:47;8.80;;;3.90;;
39782;SDS011;25462;51.164;17.100;2023-05-10T23:42:51;8.10;;;3.70;;
39782;SDS011;25462;51.164;17.100;2023-05-10T23:47:56;7.20;;;3.80;;
39782;SDS011;25462;51.164;17.100;2023-05-10T23:52:59;7.60;;;4.50;;
39782;SDS011;25462;51.164;17.100;2023-05-10T23:58:04;7.50;;;4.30;;
